createdAt,value
2023-04-28T00:00:46.854Z,14.00
2023-04-28T00:01:46.853Z,14.05
2023-04-28T00:02:46.984Z,14.13
2023-04-28T00:03:47.021Z,14.09
2023-04-28T00:04:47.006Z,14.21
2023-04-28T00:05:46.824Z,14.18
2023-04-28T00:06:46.925Z,14.03
2023-04-28T00:07:46.796Z,14.04
2023-04-28T00:08:46.766Z,14.11
2023-04-28T00:09:46.738Z,14.13
2023-04-28T00:10:46.721Z,14.18
2023-04-28T00:11:46.709Z,14.15
2023-04-28T00:12:46.730Z,14.16
2023-04-28T00:13:46.674Z,14.04
2023-04-28T00:14:46.717Z,14.03
2023-04-28T00:15:46.702Z,14.15
2023-04-28T00:16:46.835Z,14.13
2023-04-28T00:17:46.758Z,14.26
2023-04-28T00:18:46.616Z,14.34
2023-04-28T00:19:46.595Z,14.41
2023-04-28T00:20:46.599Z,14.46
2023-04-28T00:21:46.565Z,14.44
2023-04-28T00:22:46.602Z,14.38
2023-04-28T00:23:46.585Z,14.26
2023-04-28T00:24:46.533Z,14.21
2023-04-28T00:25:46.522Z,14.26
2023-04-28T00:26:46.530Z,14.22
2023-04-28T00:27:46.499Z,14.19
2023-04-28T00:28:46.476Z,14.23
2023-04-28T00:29:46.486Z,14.31
2023-04-28T00:30:46.451Z,14.31
2023-04-28T00:31:46.518Z,14.30
2023-04-28T00:32:46.484Z,14.28
2023-04-28T00:33:46.457Z,14.21
2023-04-28T00:34:46.442Z,14.21
2023-04-28T00:35:46.379Z,14.22
2023-04-28T00:36:46.390Z,14.11
2023-04-28T00:37:46.416Z,14.21
2023-04-28T00:38:46.362Z,14.31
2023-04-28T00:39:46.327Z,14.36
2023-04-28T00:40:46.336Z,14.26
2023-04-28T00:41:46.314Z,14.22
2023-04-28T00:42:46.325Z,14.21
2023-04-28T00:43:46.323Z,14.19
2023-04-28T00:44:46.271Z,14.15
2023-04-28T00:45:46.329Z,14.05
2023-04-28T00:46:46.288Z,13.96
2023-04-28T00:47:46.260Z,13.90
2023-04-28T00:48:46.211Z,13.80
2023-04-28T00:49:46.231Z,13.82
2023-04-28T00:50:46.200Z,13.80
2023-04-28T00:51:46.171Z,13.72
2023-04-28T00:52:46.183Z,13.76
2023-04-28T00:53:46.182Z,13.85
2023-04-28T00:54:46.151Z,13.91
2023-04-28T00:55:46.144Z,13.97
2023-04-28T00:56:46.100Z,14.03
2023-04-28T00:57:46.115Z,14.08
2023-04-28T00:58:46.111Z,14.13
2023-04-28T00:59:46.057Z,14.21
2023-04-28T01:00:46.061Z,14.18
2023-04-28T01:01:46.089Z,14.13
2023-04-28T01:02:46.210Z,14.09
2023-04-28T01:03:46.275Z,13.93
2023-04-28T01:04:46.189Z,14.03
2023-04-28T01:05:45.986Z,14.03
2023-04-28T01:06:46.060Z,14.09
2023-04-28T01:07:46.015Z,14.08
2023-04-28T01:08:45.963Z,14.04
2023-04-28T01:09:45.941Z,13.98
2023-04-28T01:10:45.937Z,14.04
2023-04-28T01:11:45.926Z,14.04
2023-04-28T01:12:45.918Z,14.11
2023-04-28T01:13:45.913Z,14.03
2023-04-28T01:14:45.866Z,13.98
2023-04-28T01:15:45.860Z,14.05
2023-04-28T01:16:45.940Z,14.09
2023-04-28T01:17:45.925Z,14.03
2023-04-28T01:18:45.826Z,14.05
2023-04-28T01:19:45.810Z,14.05
2023-04-28T01:20:45.801Z,14.13
2023-04-28T01:21:45.796Z,14.12
2023-04-28T01:22:45.782Z,14.11
2023-04-28T01:23:45.806Z,14.04
2023-04-28T01:24:45.749Z,14.05
2023-04-28T01:25:45.746Z,14.01
2023-04-28T01:26:45.738Z,13.98
2023-04-28T01:27:45.722Z,14.00
2023-04-28T01:28:45.727Z,14.05
2023-04-28T01:29:45.723Z,14.09
2023-04-28T01:30:45.681Z,14.01
2023-04-28T01:31:45.714Z,14.01
2023-04-28T01:32:45.699Z,14.00
2023-04-28T01:33:45.683Z,13.96
2023-04-28T01:34:45.640Z,13.98
2023-04-28T01:35:45.630Z,14.00
2023-04-28T01:36:45.594Z,13.96
2023-04-28T01:37:45.645Z,13.96
2023-04-28T01:38:45.583Z,13.98
2023-04-28T01:39:45.557Z,13.91
2023-04-28T01:40:45.544Z,13.91
2023-04-28T01:41:45.542Z,13.79
2023-04-28T01:42:45.535Z,13.85
2023-04-28T01:43:45.509Z,13.93
2023-04-28T01:44:45.511Z,14.00
2023-04-28T01:45:45.498Z,13.88
2023-04-28T01:46:45.481Z,13.85
2023-04-28T01:47:45.512Z,13.94
2023-04-28T01:48:45.428Z,14.04
2023-04-28T01:49:45.456Z,14.13
2023-04-28T01:50:45.404Z,14.18
2023-04-28T01:51:45.414Z,14.16
2023-04-28T01:52:45.446Z,14.18
2023-04-28T01:53:45.381Z,14.27
2023-04-28T01:54:45.429Z,14.28
2023-04-28T01:55:45.425Z,14.27
2023-04-28T01:56:45.340Z,14.31
2023-04-28T01:57:45.436Z,14.36
2023-04-28T01:58:45.350Z,14.36
2023-04-28T01:59:45.293Z,14.37
2023-04-28T02:00:45.335Z,14.36
2023-04-28T02:01:45.349Z,14.31
2023-04-28T02:02:45.363Z,14.31
2023-04-28T02:03:45.509Z,14.33
2023-04-28T02:04:45.374Z,14.27
2023-04-28T02:05:45.220Z,14.27
2023-04-28T02:06:45.210Z,14.28
2023-04-28T02:07:45.194Z,14.33
2023-04-28T02:08:45.183Z,14.33
2023-04-28T02:09:45.162Z,14.30
2023-04-28T02:10:45.164Z,14.33
2023-04-28T02:11:45.134Z,14.37
2023-04-28T02:12:45.176Z,14.41
2023-04-28T02:13:45.150Z,14.46
2023-04-28T02:14:45.128Z,14.45
2023-04-28T02:15:45.164Z,14.46
2023-04-28T02:16:45.087Z,14.45
2023-04-28T02:17:45.166Z,14.48
2023-04-28T02:18:45.068Z,14.49
2023-04-28T02:19:45.106Z,14.51
2023-04-28T02:20:45.036Z,14.52
2023-04-28T02:21:45.009Z,14.52
2023-04-28T02:22:45.030Z,14.53
2023-04-28T02:23:45.026Z,14.53
2023-04-28T02:24:44.991Z,14.49
2023-04-28T02:25:44.987Z,14.49
2023-04-28T02:26:44.954Z,14.49
2023-04-28T02:27:44.932Z,14.52
2023-04-28T02:28:44.979Z,14.51
2023-04-28T02:29:44.912Z,14.52
2023-04-28T02:30:44.881Z,14.52
2023-04-28T02:31:44.940Z,14.53
2023-04-28T02:32:44.929Z,14.52
2023-04-28T02:33:44.861Z,14.53
2023-04-28T02:34:44.844Z,14.51
2023-04-28T02:35:44.830Z,14.51
2023-04-28T02:36:44.877Z,14.48
2023-04-28T02:37:44.790Z,14.51
2023-04-28T02:38:44.837Z,14.51
2023-04-28T02:39:44.843Z,14.53
2023-04-28T02:40:44.761Z,14.52
2023-04-28T02:41:44.746Z,14.49
2023-04-28T02:42:44.734Z,14.49
2023-04-28T02:43:44.789Z,14.48
2023-04-28T02:44:44.695Z,14.36
2023-04-28T02:45:44.760Z,14.38
2023-04-28T02:46:44.700Z,14.41
2023-04-28T02:47:44.733Z,14.46
2023-04-28T02:48:44.720Z,14.49
2023-04-28T02:49:44.681Z,14.49
2023-04-28T02:50:44.621Z,14.49
2023-04-28T02:51:44.607Z,14.48
2023-04-28T02:52:44.905Z,14.44
2023-04-28T02:53:44.621Z,14.44
2023-04-28T02:54:44.584Z,14.45
2023-04-28T02:55:44.579Z,14.46
2023-04-28T02:56:44.558Z,14.40
2023-04-28T02:57:44.537Z,14.41
2023-04-28T02:58:44.565Z,14.46
2023-04-28T02:59:44.505Z,14.46
2023-04-28T03:00:44.570Z,14.51
2023-04-28T03:01:44.591Z,14.46
2023-04-28T03:02:44.585Z,14.49
2023-04-28T03:03:44.773Z,14.45
2023-04-28T03:04:44.460Z,14.48
2023-04-28T03:05:44.427Z,14.49
2023-04-28T03:06:44.412Z,14.49
2023-04-28T03:07:44.441Z,14.51
2023-04-28T03:08:44.420Z,14.49
2023-04-28T03:09:44.416Z,14.46
2023-04-28T03:10:44.430Z,14.46
2023-04-28T03:11:44.431Z,14.40
2023-04-28T03:12:44.377Z,14.45
2023-04-28T03:13:44.369Z,14.46
2023-04-28T03:14:44.337Z,14.44
2023-04-28T03:15:44.314Z,14.45
2023-04-28T03:16:44.312Z,14.45
2023-04-28T03:17:44.387Z,14.45
2023-04-28T03:18:44.287Z,14.44
2023-04-28T03:19:44.249Z,14.40
2023-04-28T03:20:44.219Z,14.40
2023-04-28T03:21:44.221Z,14.40
2023-04-28T03:22:44.256Z,14.38
2023-04-28T03:23:44.241Z,14.31
2023-04-28T03:24:44.209Z,14.28
2023-04-28T03:25:44.176Z,14.28
2023-04-28T03:26:44.158Z,14.33
2023-04-28T03:27:44.152Z,14.31
2023-04-28T03:28:44.144Z,14.27
2023-04-28T03:29:44.154Z,14.28
2023-04-28T03:30:44.150Z,14.26
2023-04-28T03:31:44.144Z,14.22
2023-04-28T03:32:44.102Z,14.22
2023-04-28T03:33:44.059Z,14.22
2023-04-28T03:34:44.110Z,14.18
2023-04-28T03:35:44.153Z,14.21
2023-04-28T03:36:44.032Z,14.15
2023-04-28T03:37:44.047Z,14.13
2023-04-28T03:38:44.016Z,14.11
2023-04-28T03:39:44.013Z,14.09
2023-04-28T03:40:43.981Z,14.11
2023-04-28T03:41:43.982Z,14.09
2023-04-28T03:42:43.947Z,14.05
2023-04-28T03:43:43.947Z,14.08
2023-04-28T03:44:43.961Z,14.08
2023-04-28T03:45:43.974Z,14.05
2023-04-28T03:46:43.890Z,14.05
2023-04-28T03:47:43.931Z,14.05
2023-04-28T03:48:43.874Z,14.05
2023-04-28T03:49:43.888Z,14.03
2023-04-28T03:50:43.826Z,14.03
2023-04-28T03:51:43.858Z,14.05
2023-04-28T03:52:43.827Z,14.11
2023-04-28T03:53:43.803Z,14.12
2023-04-28T03:54:43.819Z,14.08
2023-04-28T03:55:43.737Z,14.00
2023-04-28T03:56:43.717Z,14.01
2023-04-28T03:57:43.736Z,14.04
2023-04-28T03:58:43.717Z,14.09
2023-04-28T03:59:43.707Z,14.11
2023-04-28T04:00:43.647Z,14.05
2023-04-28T04:01:43.663Z,14.11
2023-04-28T04:02:43.764Z,14.11
2023-04-28T04:03:43.742Z,14.05
2023-04-28T04:04:43.775Z,14.11
2023-04-28T04:05:43.740Z,14.11
2023-04-28T04:06:43.683Z,14.15
2023-04-28T04:07:43.568Z,14.13
2023-04-28T04:08:43.557Z,14.11
2023-04-28T04:09:43.594Z,14.05
2023-04-28T04:10:43.520Z,14.08
2023-04-28T04:11:43.523Z,14.13
2023-04-28T04:12:43.564Z,14.15
2023-04-28T04:13:43.499Z,14.16
2023-04-28T04:14:43.492Z,14.15
2023-04-28T04:15:43.542Z,14.18
2023-04-28T04:16:43.440Z,14.19
2023-04-28T04:17:43.472Z,14.16
2023-04-28T04:18:43.461Z,14.21
2023-04-28T04:19:43.432Z,14.15
2023-04-28T04:20:43.376Z,14.19
2023-04-28T04:21:43.461Z,14.21
2023-04-28T04:22:43.361Z,14.22
2023-04-28T04:23:43.361Z,14.21
2023-04-28T04:24:43.419Z,14.18
2023-04-28T04:25:43.329Z,14.26
2023-04-28T04:26:43.309Z,14.23
2023-04-28T04:27:43.297Z,14.23
2023-04-28T04:28:43.317Z,14.16
2023-04-28T04:29:43.324Z,14.21
2023-04-28T04:30:43.249Z,14.21
2023-04-28T04:31:43.293Z,14.21
2023-04-28T04:32:43.284Z,14.19
2023-04-28T04:33:43.227Z,14.19
2023-04-28T04:34:43.242Z,14.22
2023-04-28T04:35:43.198Z,14.12
2023-04-28T04:36:43.292Z,14.09
2023-04-28T04:37:43.211Z,14.18
2023-04-28T04:38:43.147Z,14.16
2023-04-28T04:39:43.172Z,14.09
2023-04-28T04:40:43.161Z,14.18
2023-04-28T04:41:43.161Z,14.11
2023-04-28T04:42:43.098Z,14.01
2023-04-28T04:43:43.109Z,14.00
2023-04-28T04:44:43.082Z,14.03
2023-04-28T04:45:43.083Z,14.00
2023-04-28T04:46:43.108Z,14.09
2023-04-28T04:47:43.077Z,14.13
2023-04-28T04:48:43.040Z,14.11
2023-04-28T04:49:43.044Z,14.00
2023-04-28T04:50:42.995Z,14.11
2023-04-28T04:51:42.014Z,14.13
2023-04-28T04:52:42.971Z,14.08
2023-04-28T04:53:42.979Z,14.09
2023-04-28T04:54:42.960Z,14.16
2023-04-28T04:55:42.934Z,14.18
2023-04-28T04:56:42.920Z,14.15
2023-04-28T04:57:42.935Z,14.23
2023-04-28T04:58:42.940Z,14.30
2023-04-28T04:59:42.890Z,14.23
2023-04-28T05:00:42.905Z,14.21
2023-04-28T05:01:42.939Z,14.13
2023-04-28T05:02:43.458Z,14.16
2023-04-28T05:03:43.038Z,14.19
2023-04-28T05:04:42.924Z,14.21
2023-04-28T05:05:44.384Z,14.22
2023-04-28T05:06:42.948Z,14.30
2023-04-28T05:07:42.815Z,14.31
2023-04-28T05:08:42.805Z,14.19
2023-04-28T05:09:42.786Z,14.05
2023-04-28T05:10:42.777Z,13.91
2023-04-28T05:11:42.763Z,14.05
2023-04-28T05:12:42.711Z,14.21
2023-04-28T05:13:42.762Z,14.40
2023-04-28T05:14:42.700Z,14.44
2023-04-28T05:15:42.687Z,14.41
2023-04-28T05:16:42.697Z,14.23
2023-04-28T05:17:42.693Z,14.34
2023-04-28T05:18:42.690Z,14.41
2023-04-28T05:19:42.636Z,14.28
2023-04-28T05:20:42.613Z,14.30
2023-04-28T05:21:42.607Z,14.30
2023-04-28T05:22:42.648Z,14.37
2023-04-28T05:23:42.607Z,14.28
2023-04-28T05:24:42.557Z,14.44
2023-04-28T05:25:42.538Z,14.37
2023-04-28T05:26:42.545Z,14.23
2023-04-28T05:27:42.521Z,14.15
2023-04-28T05:28:42.508Z,14.18
2023-04-28T05:29:42.543Z,14.31
2023-04-28T05:30:42.521Z,14.44
2023-04-28T05:31:42.486Z,14.58
2023-04-28T05:32:42.496Z,14.70
2023-04-28T05:33:42.509Z,14.83
2023-04-28T05:34:42.517Z,14.87
2023-04-28T05:35:42.466Z,14.66
2023-04-28T05:36:42.404Z,14.63
2023-04-28T05:37:42.415Z,14.51
2023-04-28T05:38:42.398Z,14.55
2023-04-28T05:39:42.404Z,14.45
2023-04-28T05:40:42.397Z,14.41
2023-04-28T05:41:42.355Z,14.51
2023-04-28T05:42:42.350Z,14.66
2023-04-28T05:43:42.547Z,14.49
2023-04-28T05:44:43.173Z,14.52
2023-04-28T05:45:42.400Z,14.38
2023-04-28T05:46:42.316Z,14.55
2023-04-28T05:47:42.411Z,14.41
2023-04-28T05:48:42.273Z,14.46
2023-04-28T05:49:42.231Z,14.52
2023-04-28T05:50:42.214Z,14.51
2023-04-28T05:51:42.213Z,14.45
2023-04-28T05:52:42.193Z,14.48
2023-04-28T05:53:42.203Z,14.53
2023-04-28T05:54:42.311Z,14.49
2023-04-28T05:55:42.162Z,14.46
2023-04-28T05:56:42.225Z,14.61
2023-04-28T05:57:52.301Z,14.53
2023-04-28T05:58:42.179Z,14.45
2023-04-28T05:59:42.124Z,14.53
2023-04-28T06:00:42.140Z,14.51
2023-04-28T06:01:42.183Z,14.51
2023-04-28T06:02:42.239Z,14.52
2023-04-28T06:03:42.356Z,14.52
2023-04-28T06:04:42.358Z,14.33
2023-04-28T06:05:42.173Z,14.46
2023-04-28T06:06:42.028Z,14.38
2023-04-28T06:07:42.021Z,14.40
2023-04-28T06:08:42.023Z,14.44
2023-04-28T06:09:41.963Z,14.46
2023-04-28T06:10:41.999Z,14.63
2023-04-28T06:11:41.944Z,14.51
2023-04-28T06:12:41.997Z,14.61
2023-04-28T06:13:41.913Z,14.56
2023-04-28T06:14:41.906Z,14.44
2023-04-28T06:15:41.966Z,14.55
2023-04-28T06:16:41.890Z,14.63
2023-04-28T06:17:41.878Z,14.56
2023-04-28T06:18:41.895Z,14.26
2023-04-28T06:19:41.829Z,14.28
2023-04-28T06:20:41.848Z,14.36
2023-04-28T06:21:41.884Z,14.28
2023-04-28T06:22:41.802Z,14.26
2023-04-28T06:23:41.827Z,14.26
2023-04-28T06:24:41.781Z,14.44
2023-04-28T06:25:41.755Z,14.49
2023-04-28T06:26:41.753Z,14.34
2023-04-28T06:27:41.761Z,14.40
2023-04-28T06:28:41.770Z,14.55
2023-04-28T06:29:41.788Z,14.58
2023-04-28T06:30:41.714Z,14.48
2023-04-28T06:31:41.766Z,14.44
2023-04-28T06:32:41.698Z,14.55
2023-04-28T06:33:41.698Z,14.58
2023-04-28T06:34:41.642Z,14.63
2023-04-28T06:35:41.616Z,14.67
2023-04-28T06:36:41.664Z,14.55
2023-04-28T06:37:41.583Z,14.73
2023-04-28T06:38:41.601Z,14.71
2023-04-28T06:39:41.619Z,14.69
2023-04-28T06:40:41.561Z,14.87
2023-04-28T06:41:41.562Z,14.90
2023-04-28T06:42:41.554Z,14.92
2023-04-28T06:43:41.533Z,14.90
2023-04-28T06:44:41.516Z,14.83
2023-04-28T06:45:41.497Z,14.90
2023-04-28T06:46:41.579Z,14.95
2023-04-28T06:47:41.506Z,14.59
2023-04-28T06:48:41.478Z,14.70
2023-04-28T06:49:41.480Z,14.70
2023-04-28T06:50:43.449Z,14.77
2023-04-28T06:51:41.419Z,14.83
2023-04-28T06:52:41.461Z,14.74
2023-04-28T06:53:41.414Z,14.67
2023-04-28T06:54:41.381Z,14.69
2023-04-28T06:55:41.404Z,14.79
2023-04-28T06:56:41.366Z,14.82
2023-04-28T06:57:41.327Z,14.85
2023-04-28T06:58:41.360Z,14.90
2023-04-28T06:59:41.327Z,14.90
2023-04-28T07:00:41.337Z,14.93
2023-04-28T07:01:41.334Z,15.03
2023-04-28T07:02:41.512Z,14.77
2023-04-28T07:03:41.494Z,14.61
2023-04-28T07:04:41.257Z,14.82
2023-04-28T07:05:41.258Z,14.87
2023-04-28T07:06:41.261Z,14.82
2023-04-28T07:07:41.209Z,14.85
2023-04-28T07:08:41.238Z,14.93
2023-04-28T07:09:41.218Z,15.05
2023-04-28T07:10:41.181Z,14.99
2023-04-28T07:11:41.177Z,14.87
2023-04-28T07:12:41.197Z,14.95
2023-04-28T07:13:41.115Z,14.92
2023-04-28T07:14:41.115Z,14.79
2023-04-28T07:15:41.111Z,15.03
2023-04-28T07:16:41.123Z,15.03
2023-04-28T07:17:41.160Z,15.07
2023-04-28T07:18:41.110Z,15.25
2023-04-28T07:19:41.054Z,15.07
2023-04-28T07:20:41.034Z,14.97
2023-04-28T07:21:41.047Z,14.97
2023-04-28T07:22:41.019Z,15.08
2023-04-28T07:23:41.028Z,15.23
2023-04-28T07:24:41.026Z,15.15
2023-04-28T07:25:40.975Z,15.14
2023-04-28T07:26:40.969Z,15.19
2023-04-28T07:27:40.964Z,15.27
2023-04-28T07:28:40.948Z,15.27
2023-04-28T07:29:40.936Z,15.25
2023-04-28T07:30:40.923Z,15.19
2023-04-28T07:31:40.937Z,15.20
2023-04-28T07:32:40.942Z,15.07
2023-04-28T07:33:40.888Z,15.10
2023-04-28T07:34:40.840Z,15.04
2023-04-28T07:35:40.836Z,15.07
2023-04-28T07:36:40.859Z,15.19
2023-04-28T07:37:40.808Z,15.19
2023-04-28T07:38:40.798Z,15.19
2023-04-28T07:39:40.793Z,15.38
2023-04-28T07:40:40.805Z,15.29
2023-04-28T07:41:40.780Z,15.27
2023-04-28T07:42:40.765Z,15.14
2023-04-28T07:43:40.727Z,15.30
2023-04-28T07:44:40.788Z,15.30
2023-04-28T07:45:40.761Z,15.17
2023-04-28T07:46:40.718Z,15.35
2023-04-28T07:47:40.733Z,15.36
2023-04-28T07:48:40.696Z,15.19
2023-04-28T07:49:40.644Z,15.25
2023-04-28T07:50:40.658Z,15.33
2023-04-28T07:51:40.651Z,15.33
2023-04-28T07:52:40.608Z,15.40
2023-04-28T07:53:40.636Z,15.45
2023-04-28T07:54:40.604Z,15.44
2023-04-28T07:55:40.580Z,15.48
2023-04-28T07:56:40.575Z,15.51
2023-04-28T07:57:40.556Z,15.50
2023-04-28T07:58:40.584Z,15.70
2023-04-28T07:59:40.508Z,15.56
2023-04-28T08:00:41.301Z,15.45
2023-04-28T08:01:40.505Z,15.48
2023-04-28T08:02:40.598Z,15.68
2023-04-28T08:03:40.803Z,15.59
2023-04-28T08:04:41.302Z,15.52
2023-04-28T08:05:40.476Z,15.77
2023-04-28T08:06:40.440Z,15.83
2023-04-28T08:07:40.432Z,15.70
2023-04-28T08:08:40.423Z,15.68
2023-04-28T08:09:41.745Z,15.70
2023-04-28T08:10:40.396Z,15.66
2023-04-28T08:11:40.380Z,15.77
2023-04-28T08:12:40.407Z,15.62
2023-04-28T08:13:40.377Z,15.84
2023-04-28T08:14:40.334Z,15.81
2023-04-28T08:15:40.350Z,15.83
2023-04-28T08:16:40.371Z,15.85
2023-04-28T08:17:40.355Z,15.93
2023-04-28T08:18:40.313Z,16.13
2023-04-28T08:19:40.297Z,15.95
2023-04-28T08:20:40.266Z,16.02
2023-04-28T08:21:40.256Z,16.03
2023-04-28T08:22:40.230Z,15.96
2023-04-28T08:23:40.234Z,15.87
2023-04-28T08:24:40.184Z,15.91
2023-04-28T08:25:40.221Z,16.06
2023-04-28T08:26:40.236Z,16.08
2023-04-28T08:27:40.179Z,16.05
2023-04-28T08:28:40.145Z,16.22
2023-04-28T08:29:40.131Z,15.91
2023-04-28T08:30:40.119Z,15.90
2023-04-28T08:31:40.175Z,15.87
2023-04-28T08:32:40.116Z,16.09
2023-04-28T08:33:40.118Z,16.32
2023-04-28T08:34:40.082Z,16.28
2023-04-28T08:35:40.061Z,16.16
2023-04-28T08:36:40.071Z,16.21
2023-04-28T08:37:40.040Z,15.99
2023-04-28T08:38:40.077Z,16.05
2023-04-28T08:39:39.986Z,15.99
2023-04-28T08:40:39.990Z,16.08
2023-04-28T08:41:39.990Z,16.08
2023-04-28T08:42:39.973Z,16.16
2023-04-28T08:43:39.966Z,16.21
2023-04-28T08:44:39.956Z,16.28
2023-04-28T08:45:39.910Z,16.26
2023-04-28T08:46:39.972Z,16.21
2023-04-28T08:47:39.900Z,16.40
2023-04-28T08:48:39.881Z,16.46
2023-04-28T08:49:39.930Z,16.37
2023-04-28T08:50:39.856Z,16.37
2023-04-28T08:51:42.050Z,16.25
2023-04-28T08:52:39.834Z,16.55
2023-04-28T08:54:08.831Z,16.43
2023-04-28T08:54:39.815Z,16.24
2023-04-28T08:55:39.795Z,16.28
2023-04-28T08:56:39.792Z,16.28
2023-04-28T08:57:41.337Z,16.02
2023-04-28T08:58:39.770Z,15.95
2023-04-28T08:59:39.745Z,15.95
2023-04-28T09:00:39.730Z,16.02
2023-04-28T09:01:39.716Z,16.00
2023-04-28T09:02:39.800Z,15.84
2023-04-28T09:03:39.785Z,16.08
2023-04-28T09:04:39.992Z,16.25
2023-04-28T09:05:39.784Z,16.06
2023-04-28T09:06:39.654Z,16.05
2023-04-28T09:07:39.666Z,16.13
2023-04-28T09:08:39.632Z,16.16
2023-04-28T09:09:39.601Z,16.24
2023-04-28T09:10:39.612Z,16.29
2023-04-28T09:11:39.594Z,16.26
2023-04-28T09:12:39.612Z,16.34
2023-04-28T09:13:39.562Z,16.32
2023-04-28T09:14:39.553Z,16.29
2023-04-28T09:15:39.542Z,16.37
2023-04-28T09:16:39.561Z,16.52
2023-04-28T09:17:39.496Z,16.43
2023-04-28T09:18:39.563Z,16.39
2023-04-28T09:19:39.479Z,16.32
2023-04-28T09:20:39.491Z,16.47
2023-04-28T09:21:39.432Z,16.40
2023-04-28T09:22:39.522Z,16.55
2023-04-28T09:23:39.438Z,16.42
2023-04-28T09:24:39.540Z,16.61
2023-04-28T09:25:39.431Z,16.59
2023-04-28T09:26:39.413Z,16.36
2023-04-28T09:27:39.384Z,16.43
2023-04-28T09:28:39.361Z,16.52
2023-04-28T09:29:39.380Z,16.59
2023-04-28T09:30:39.351Z,16.47
2023-04-28T09:31:39.363Z,16.51
2023-04-28T09:32:39.373Z,16.65
2023-04-28T09:33:39.349Z,16.51
2023-04-28T09:34:39.315Z,16.47
2023-04-28T09:35:39.279Z,16.40
2023-04-28T09:36:39.285Z,16.47
2023-04-28T09:37:39.293Z,16.79
2023-04-28T09:38:39.266Z,16.87
2023-04-28T09:39:39.217Z,16.91
2023-04-28T09:40:39.224Z,16.91
2023-04-28T09:41:39.216Z,16.84
2023-04-28T09:42:39.169Z,16.95
2023-04-28T09:43:39.221Z,16.97
2023-04-28T09:44:39.154Z,16.88
2023-04-28T09:45:39.200Z,16.91
2023-04-28T09:46:39.174Z,16.77
2023-04-28T09:47:39.284Z,16.57
2023-04-28T09:48:39.133Z,16.74
2023-04-28T09:49:39.107Z,16.82
2023-04-28T09:50:39.094Z,16.73
2023-04-28T09:51:39.130Z,16.72
2023-04-28T09:52:39.071Z,16.83
2023-04-28T09:53:39.062Z,17.16
2023-04-28T09:54:39.068Z,17.06
2023-04-28T09:55:39.013Z,17.04
2023-04-28T09:56:39.698Z,17.27
2023-04-28T09:57:39.019Z,17.31
2023-04-28T09:58:39.015Z,17.50
2023-04-28T09:59:39.050Z,17.49
2023-04-28T10:00:38.984Z,17.81
2023-04-28T10:01:39.055Z,17.93
2023-04-28T10:03:39.067Z,17.54
2023-04-28T10:04:39.573Z,17.47
2023-04-28T10:05:39.062Z,17.53
2023-04-28T10:06:38.882Z,17.63
2023-04-28T10:07:40.341Z,17.25
2023-04-28T10:08:39.029Z,17.22
2023-04-28T10:09:38.883Z,17.41
2023-04-28T10:10:38.829Z,17.39
2023-04-28T10:11:38.867Z,17.50
2023-04-28T10:12:39.172Z,17.32
2023-04-28T10:13:38.804Z,17.41
2023-04-28T10:14:39.218Z,17.34
2023-04-28T10:15:38.789Z,17.53
2023-04-28T10:16:38.787Z,17.54
2023-04-28T10:17:38.858Z,17.49
2023-04-28T10:18:38.722Z,17.76
2023-04-28T10:19:38.703Z,17.81
2023-04-28T10:20:38.725Z,18.11
2023-04-28T10:21:38.692Z,17.78
2023-04-28T10:22:38.659Z,17.72
2023-04-28T10:23:38.666Z,17.52
2023-04-28T10:24:38.675Z,17.50
2023-04-28T10:25:38.667Z,17.65
2023-04-28T10:26:38.606Z,17.73
2023-04-28T10:27:38.591Z,17.73
2023-04-28T10:28:38.580Z,17.75
2023-04-28T10:29:38.587Z,17.68
2023-04-28T10:30:38.643Z,17.68
2023-04-28T10:31:38.567Z,17.59
2023-04-28T10:32:38.580Z,17.66
2023-04-28T10:33:38.568Z,17.53
2023-04-28T10:34:38.527Z,17.50
2023-04-28T10:35:38.493Z,17.34
2023-04-28T10:36:38.513Z,17.54
2023-04-28T10:37:38.523Z,17.32
2023-04-28T10:38:38.442Z,17.24
2023-04-28T10:39:38.487Z,17.22
2023-04-28T10:40:38.430Z,16.99
2023-04-28T10:41:38.411Z,17.04
2023-04-28T10:42:38.420Z,17.25
2023-04-28T10:43:38.402Z,17.17
2023-04-28T10:44:38.417Z,17.17
2023-04-28T10:45:38.395Z,16.97
2023-04-28T10:46:38.392Z,16.94
2023-04-28T10:47:38.362Z,17.02
2023-04-28T10:48:38.348Z,16.99
2023-04-28T10:49:38.322Z,17.14
2023-04-28T10:50:39.056Z,17.31
2023-04-28T10:51:38.344Z,17.24
2023-04-28T10:52:38.277Z,17.24
2023-04-28T10:53:38.304Z,17.25
2023-04-28T10:54:38.253Z,17.07
2023-04-28T10:55:38.228Z,17.16
2023-04-28T10:56:39.294Z,17.20
2023-04-28T10:57:38.253Z,17.13
2023-04-28T10:58:38.182Z,17.04
2023-04-28T10:59:38.189Z,17.06
2023-04-28T11:00:38.184Z,17.22
2023-04-28T11:01:38.158Z,17.04
2023-04-28T11:02:39.790Z,17.32
2023-04-28T11:03:38.258Z,17.41
2023-04-28T11:04:38.263Z,17.22
2023-04-28T11:05:38.097Z,17.27
2023-04-28T11:06:38.084Z,17.45
2023-04-28T11:07:38.111Z,17.31
2023-04-28T11:08:38.047Z,17.50
2023-04-28T11:09:38.065Z,17.63
2023-04-28T11:10:38.026Z,17.57
2023-04-28T11:11:38.045Z,17.97
2023-04-28T11:12:38.001Z,17.81
2023-04-28T11:13:38.361Z,17.88
2023-04-28T11:14:38.028Z,17.88
2023-04-28T11:15:37.975Z,17.79
2023-04-28T11:16:38.044Z,17.99
2023-04-28T11:17:37.964Z,18.15
2023-04-28T11:18:37.918Z,18.43
2023-04-28T11:19:37.962Z,18.34
2023-04-28T11:20:37.898Z,18.41
2023-04-28T11:21:37.880Z,18.17
2023-04-28T11:22:37.886Z,18.06
2023-04-28T11:23:37.856Z,18.01
2023-04-28T11:24:37.887Z,18.03
2023-04-28T11:25:37.826Z,18.27
2023-04-28T11:26:37.827Z,18.67
2023-04-28T11:27:37.820Z,18.86
2023-04-28T11:28:37.846Z,19.05
2023-04-28T11:29:37.809Z,19.12
2023-04-28T11:30:37.775Z,19.00
2023-04-28T11:31:37.769Z,18.97
2023-04-28T11:32:37.913Z,18.85
2023-04-28T11:33:37.733Z,19.20
2023-04-28T11:34:37.730Z,18.61
2023-04-28T11:35:37.750Z,18.75
2023-04-28T11:36:43.688Z,18.82
2023-04-28T11:37:37.669Z,19.23
2023-04-28T11:38:37.664Z,19.39
2023-04-28T11:39:37.666Z,19.71
2023-04-28T11:40:37.655Z,19.37
2023-04-28T11:41:37.637Z,19.82
2023-04-28T11:42:37.628Z,20.19
2023-04-28T11:43:46.810Z,19.77
2023-04-28T11:44:37.592Z,19.49
2023-04-28T11:45:37.623Z,19.26
2023-04-28T11:46:37.554Z,19.20
2023-04-28T11:47:37.562Z,19.22
2023-04-28T11:48:37.524Z,19.24
2023-04-28T11:49:38.989Z,18.98
2023-04-28T11:52:55.290Z,19.31
2023-04-28T11:53:56.248Z,19.22
2023-04-28T11:54:56.278Z,19.16
2023-04-28T11:55:56.212Z,19.07
2023-04-28T11:56:56.204Z,19.00
2023-04-28T11:57:56.187Z,18.81
2023-04-28T11:58:56.205Z,18.67
2023-04-28T11:59:56.192Z,18.67
2023-04-28T12:00:56.155Z,18.76
2023-04-28T12:01:56.201Z,18.67
2023-04-28T12:02:56.221Z,18.64
2023-04-28T12:03:56.181Z,18.88
2023-04-28T12:06:07.195Z,19.39
2023-04-28T12:07:08.189Z,19.70
2023-04-28T12:08:08.183Z,19.67
2023-04-28T12:09:08.164Z,19.72
2023-04-28T12:10:08.286Z,19.70
2023-04-28T12:11:08.211Z,19.37
2023-04-28T12:12:08.142Z,19.07
2023-04-28T12:13:08.134Z,18.88
2023-04-28T12:14:08.097Z,18.83
2023-04-28T12:15:08.151Z,18.79
2023-04-28T12:16:08.100Z,18.74
2023-04-28T12:17:08.056Z,18.75
2023-04-28T12:18:08.101Z,19.07
2023-04-28T12:19:08.023Z,19.13
2023-04-28T12:20:08.067Z,19.17
2023-04-28T12:21:08.023Z,19.23
2023-04-28T12:22:08.009Z,19.20
2023-04-28T12:23:08.233Z,19.16
2023-04-28T12:24:07.978Z,18.96
2023-04-28T12:25:08.132Z,18.82
2023-04-28T12:26:07.928Z,18.63
2023-04-28T12:27:07.917Z,18.66
2023-04-28T12:28:08.533Z,18.46
2023-04-28T12:29:07.907Z,18.33
2023-04-28T12:30:07.936Z,18.30
2023-04-28T12:31:07.908Z,18.09
2023-04-28T12:32:07.859Z,18.17
2023-04-28T12:33:07.869Z,17.94
2023-04-28T12:34:07.850Z,18.03
2023-04-28T12:35:07.824Z,18.30
2023-04-28T12:36:07.829Z,18.28
2023-04-28T12:37:07.794Z,18.17
2023-04-28T12:38:07.779Z,18.02
2023-04-28T12:39:07.770Z,18.05
2023-04-28T12:40:07.932Z,18.03
2023-04-28T12:41:07.750Z,18.15
2023-04-28T12:42:07.722Z,17.96
2023-04-28T12:43:07.717Z,17.78
2023-04-28T12:44:07.688Z,17.68
2023-04-28T12:45:07.685Z,17.62
2023-04-28T12:46:07.735Z,17.91
2023-04-28T12:47:07.699Z,17.99
2023-04-28T12:48:07.713Z,18.02
2023-04-28T12:49:07.639Z,18.08
2023-04-28T12:50:07.772Z,18.57
2023-04-28T12:51:07.623Z,18.39
2023-04-28T12:52:07.617Z,18.83
2023-04-28T12:53:07.575Z,18.82
2023-04-28T12:54:07.561Z,18.89
2023-04-28T12:55:07.557Z,19.04
2023-04-28T12:56:07.693Z,18.96
2023-04-28T12:57:07.537Z,18.82